sensor_id;sensor_type;location;lat;lon;timestamp;P1;durP1;ratioP1;P2;durP2;ratioP2
45688;SDS011;31400;48.132;20.872;2024-02-15T00:00:40;58.00;;;30.35;;
45688;SDS011;31400;48.132;20.872;2024-02-15T00:03:09;58.17;;;30.15;;
45688;SDS011;31400;48.132;20.872;2024-02-15T00:05:38;55.25;;;28.83;;
45688;SDS011;31400;48.132;20.872;2024-02-15T00:08:04;48.22;;;28.23;;
45688;SDS011;31400;48.132;20.872;2024-02-15T00:10:31;49.78;;;31.02;;
45688;SDS011;31400;48.132;20.872;2024-02-15T00:12:57;36.03;;;22.30;;
45688;SDS011;31400;48.132;20.872;2024-02-15T00:15:23;62.53;;;29.83;;
45688;SDS011;31400;48.132;20.872;2024-02-15T00:17:49;54.67;;;31.58;;
45688;SDS011;31400;48.132;20.872;2024-02-15T00:20:16;51.85;;;27.42;;
45688;SDS011;31400;48.132;20.872;2024-02-15T00:22:42;54.58;;;27.30;;
45688;SDS011;31400;48.132;20.872;2024-02-15T00:25:09;46.42;;;25.45;;
45688;SDS011;31400;48.132;20.872;2024-02-15T00:27:36;44.53;;;23.27;;
45688;SDS011;31400;48.132;20.872;2024-02-15T00:30:02;43.63;;;24.05;;
45688;SDS011;31400;48.132;20.872;2024-02-15T00:32:32;48.08;;;23.88;;
45688;SDS011;31400;48.132;20.872;2024-02-15T00:34:58;41.75;;;24.00;;
45688;SDS011;31400;48.132;20.872;2024-02-15T00:37:24;54.45;;;24.52;;
45688;SDS011;31400;48.132;20.872;2024-02-15T00:39:50;50.38;;;24.98;;
45688;SDS011;31400;48.132;20.872;2024-02-15T00:42:16;45.92;;;25.27;;
45688;SDS011;31400;48.132;20.872;2024-02-15T00:44:42;48.60;;;30.40;;
45688;SDS011;31400;48.132;20.872;2024-02-15T00:47:11;64.60;;;37.08;;
45688;SDS011;31400;48.132;20.872;2024-02-15T00:49:38;76.28;;;40.92;;
45688;SDS011;31400;48.132;20.872;2024-02-15T00:52:04;81.97;;;41.72;;
45688;SDS011;31400;48.132;20.872;2024-02-15T00:54:30;72.25;;;40.45;;
45688;SDS011;31400;48.132;20.872;2024-02-15T00:56:56;51.75;;;28.65;;
45688;SDS011;31400;48.132;20.872;2024-02-15T00:59:22;66.75;;;37.25;;
45688;SDS011;31400;48.132;20.872;2024-02-15T01:01:48;56.05;;;34.63;;
45688;SDS011;31400;48.132;20.872;2024-02-15T01:04:14;61.45;;;30.30;;
45688;SDS011;31400;48.132;20.872;2024-02-15T01:06:40;52.92;;;29.08;;
45688;SDS011;31400;48.132;20.872;2024-02-15T01:09:07;54.70;;;28.60;;
45688;SDS011;31400;48.132;20.872;2024-02-15T01:11:33;48.47;;;28.52;;
45688;SDS011;31400;48.132;20.872;2024-02-15T01:14:00;58.05;;;29.42;;
45688;SDS011;31400;48.132;20.872;2024-02-15T01:16:26;52.53;;;28.75;;
45688;SDS011;31400;48.132;20.872;2024-02-15T01:18:52;59.10;;;32.25;;
45688;SDS011;31400;48.132;20.872;2024-02-15T01:21:18;51.50;;;30.38;;
45688;SDS011;31400;48.132;20.872;2024-02-15T01:23:44;57.75;;;32.08;;
45688;SDS011;31400;48.132;20.872;2024-02-15T01:26:11;54.95;;;31.60;;
45688;SDS011;31400;48.132;20.872;2024-02-15T01:31:03;53.33;;;32.08;;
45688;SDS011;31400;48.132;20.872;2024-02-15T01:33:31;66.47;;;32.80;;
45688;SDS011;31400;48.132;20.872;2024-02-15T01:35:57;57.33;;;30.50;;
45688;SDS011;31400;48.132;20.872;2024-02-15T01:38:23;58.65;;;31.05;;
45688;SDS011;31400;48.132;20.872;2024-02-15T01:40:49;62.38;;;35.75;;
45688;SDS011;31400;48.132;20.872;2024-02-15T01:43:15;61.28;;;35.40;;
45688;SDS011;31400;48.132;20.872;2024-02-15T01:45:41;57.03;;;35.55;;
45688;SDS011;31400;48.132;20.872;2024-02-15T01:48:08;69.32;;;38.53;;
45688;SDS011;31400;48.132;20.872;2024-02-15T01:50:35;75.85;;;37.50;;
45688;SDS011;31400;48.132;20.872;2024-02-15T01:55:28;63.00;;;34.67;;
45688;SDS011;31400;48.132;20.872;2024-02-15T01:57:54;54.30;;;26.67;;
45688;SDS011;31400;48.132;20.872;2024-02-15T02:00:20;51.15;;;30.92;;
45688;SDS011;31400;48.132;20.872;2024-02-15T02:05:14;55.72;;;30.25;;
45688;SDS011;31400;48.132;20.872;2024-02-15T02:07:40;59.42;;;28.67;;
45688;SDS011;31400;48.132;20.872;2024-02-15T02:10:07;51.78;;;28.20;;
45688;SDS011;31400;48.132;20.872;2024-02-15T02:12:34;44.35;;;28.77;;
45688;SDS011;31400;48.132;20.872;2024-02-15T02:15:00;52.80;;;27.35;;
45688;SDS011;31400;48.132;20.872;2024-02-15T02:17:26;52.15;;;26.00;;
45688;SDS011;31400;48.132;20.872;2024-02-15T02:19:52;40.25;;;24.38;;
45688;SDS011;31400;48.132;20.872;2024-02-15T02:22:18;39.67;;;23.60;;
45688;SDS011;31400;48.132;20.872;2024-02-15T02:24:56;31.92;;;21.83;;
45688;SDS011;31400;48.132;20.872;2024-02-15T02:27:26;36.20;;;20.65;;
45688;SDS011;31400;48.132;20.872;2024-02-15T02:29:56;45.58;;;24.67;;
45688;SDS011;31400;48.132;20.872;2024-02-15T02:32:24;33.72;;;20.58;;
45688;SDS011;31400;48.132;20.872;2024-02-15T02:34:51;31.52;;;21.20;;
45688;SDS011;31400;48.132;20.872;2024-02-15T02:37:22;50.22;;;20.80;;
45688;SDS011;31400;48.132;20.872;2024-02-15T02:39:48;35.22;;;21.83;;
45688;SDS011;31400;48.132;20.872;2024-02-15T02:42:14;36.45;;;20.90;;
45688;SDS011;31400;48.132;20.872;2024-02-15T02:44:40;29.77;;;18.63;;
45688;SDS011;31400;48.132;20.872;2024-02-15T02:47:05;34.90;;;19.05;;
45688;SDS011;31400;48.132;20.872;2024-02-15T02:49:31;31.85;;;18.33;;
45688;SDS011;31400;48.132;20.872;2024-02-15T02:51:57;39.28;;;18.13;;
45688;SDS011;31400;48.132;20.872;2024-02-15T02:54:23;37.85;;;20.05;;
45688;SDS011;31400;48.132;20.872;2024-02-15T02:56:49;33.90;;;19.30;;
45688;SDS011;31400;48.132;20.872;2024-02-15T02:59:15;35.75;;;19.88;;
45688;SDS011;31400;48.132;20.872;2024-02-15T03:01:41;35.20;;;18.70;;
45688;SDS011;31400;48.132;20.872;2024-02-15T03:04:07;36.60;;;20.90;;
45688;SDS011;31400;48.132;20.872;2024-02-15T03:06:34;38.30;;;20.60;;
45688;SDS011;31400;48.132;20.872;2024-02-15T03:09:00;37.60;;;20.52;;
45688;SDS011;31400;48.132;20.872;2024-02-15T03:11:26;30.52;;;18.42;;
45688;SDS011;31400;48.132;20.872;2024-02-15T03:13:52;32.20;;;18.77;;
45688;SDS011;31400;48.132;20.872;2024-02-15T03:16:21;30.30;;;17.45;;
45688;SDS011;31400;48.132;20.872;2024-02-15T03:18:47;31.80;;;16.67;;
45688;SDS011;31400;48.132;20.872;2024-02-15T03:21:13;31.30;;;17.45;;
45688;SDS011;31400;48.132;20.872;2024-02-15T03:23:40;31.35;;;17.15;;
45688;SDS011;31400;48.132;20.872;2024-02-15T03:26:07;21.63;;;15.02;;
45688;SDS011;31400;48.132;20.872;2024-02-15T03:28:34;28.65;;;18.20;;
45688;SDS011;31400;48.132;20.872;2024-02-15T03:31:02;37.28;;;17.38;;
45688;SDS011;31400;48.132;20.872;2024-02-15T03:33:29;33.22;;;17.30;;
45688;SDS011;31400;48.132;20.872;2024-02-15T03:35:59;27.23;;;17.48;;
45688;SDS011;31400;48.132;20.872;2024-02-15T03:38:26;37.40;;;19.27;;
45688;SDS011;31400;48.132;20.872;2024-02-15T03:40:54;34.28;;;19.55;;
45688;SDS011;31400;48.132;20.872;2024-02-15T03:43:20;37.65;;;19.02;;
45688;SDS011;31400;48.132;20.872;2024-02-15T03:45:46;38.63;;;21.98;;
45688;SDS011;31400;48.132;20.872;2024-02-15T03:48:12;36.25;;;20.98;;
45688;SDS011;31400;48.132;20.872;2024-02-15T03:50:38;32.53;;;18.38;;
45688;SDS011;31400;48.132;20.872;2024-02-15T03:53:04;45.40;;;19.50;;
45688;SDS011;31400;48.132;20.872;2024-02-15T03:55:31;36.33;;;18.88;;
45688;SDS011;31400;48.132;20.872;2024-02-15T03:57:58;38.97;;;19.80;;
45688;SDS011;31400;48.132;20.872;2024-02-15T04:00:24;27.48;;;17.85;;
45688;SDS011;31400;48.132;20.872;2024-02-15T04:02:50;33.55;;;18.85;;
45688;SDS011;31400;48.132;20.872;2024-02-15T04:05:16;29.13;;;19.25;;
45688;SDS011;31400;48.132;20.872;2024-02-15T04:07:43;31.88;;;18.10;;
45688;SDS011;31400;48.132;20.872;2024-02-15T04:10:10;34.88;;;19.27;;
45688;SDS011;31400;48.132;20.872;2024-02-15T04:12:36;30.10;;;17.60;;
45688;SDS011;31400;48.132;20.872;2024-02-15T04:15:02;38.60;;;20.13;;
45688;SDS011;31400;48.132;20.872;2024-02-15T04:17:32;42.40;;;19.80;;
45688;SDS011;31400;48.132;20.872;2024-02-15T04:19:59;34.10;;;19.50;;
45688;SDS011;31400;48.132;20.872;2024-02-15T04:22:26;31.15;;;17.60;;
45688;SDS011;31400;48.132;20.872;2024-02-15T04:27:18;34.72;;;18.50;;
45688;SDS011;31400;48.132;20.872;2024-02-15T04:29:45;29.55;;;17.50;;
45688;SDS011;31400;48.132;20.872;2024-02-15T04:32:12;30.55;;;18.83;;
45688;SDS011;31400;48.132;20.872;2024-02-15T04:34:38;30.17;;;17.48;;
45688;SDS011;31400;48.132;20.872;2024-02-15T04:39:32;31.20;;;17.67;;
45688;SDS011;31400;48.132;20.872;2024-02-15T04:41:58;33.80;;;17.63;;
45688;SDS011;31400;48.132;20.872;2024-02-15T04:44:25;34.13;;;18.65;;
45688;SDS011;31400;48.132;20.872;2024-02-15T04:46:52;25.80;;;16.88;;
45688;SDS011;31400;48.132;20.872;2024-02-15T04:49:18;34.55;;;18.15;;
45688;SDS011;31400;48.132;20.872;2024-02-15T04:51:45;26.05;;;15.63;;
45688;SDS011;31400;48.132;20.872;2024-02-15T04:54:12;36.85;;;18.25;;
45688;SDS011;31400;48.132;20.872;2024-02-15T04:56:38;25.05;;;16.90;;
45688;SDS011;31400;48.132;20.872;2024-02-15T05:01:33;81.57;;;43.25;;
45688;SDS011;31400;48.132;20.872;2024-02-15T05:03:59;116.22;;;54.30;;
45688;SDS011;31400;48.132;20.872;2024-02-15T05:06:31;85.40;;;46.03;;
45688;SDS011;31400;48.132;20.872;2024-02-15T05:08:57;58.25;;;33.30;;
45688;SDS011;31400;48.132;20.872;2024-02-15T05:11:24;45.10;;;26.05;;
45688;SDS011;31400;48.132;20.872;2024-02-15T05:13:50;42.83;;;22.90;;
45688;SDS011;31400;48.132;20.872;2024-02-15T05:16:17;48.05;;;23.70;;
45688;SDS011;31400;48.132;20.872;2024-02-15T05:18:43;34.47;;;19.85;;
45688;SDS011;31400;48.132;20.872;2024-02-15T05:21:10;34.58;;;20.63;;
45688;SDS011;31400;48.132;20.872;2024-02-15T05:23:36;31.40;;;17.60;;
45688;SDS011;31400;48.132;20.872;2024-02-15T05:26:04;27.60;;;17.20;;
45688;SDS011;31400;48.132;20.872;2024-02-15T05:28:30;34.63;;;15.60;;
45688;SDS011;31400;48.132;20.872;2024-02-15T05:31:12;29.00;;;15.20;;
45688;SDS011;31400;48.132;20.872;2024-02-15T05:33:48;22.50;;;12.98;;
45688;SDS011;31400;48.132;20.872;2024-02-15T05:36:14;28.70;;;14.93;;
45688;SDS011;31400;48.132;20.872;2024-02-15T05:38:40;24.10;;;14.10;;
45688;SDS011;31400;48.132;20.872;2024-02-15T05:41:10;29.67;;;15.75;;
45688;SDS011;31400;48.132;20.872;2024-02-15T05:43:39;29.20;;;14.88;;
45688;SDS011;31400;48.132;20.872;2024-02-15T05:46:09;24.52;;;15.65;;
45688;SDS011;31400;48.132;20.872;2024-02-15T05:48:35;31.70;;;16.23;;
45688;SDS011;31400;48.132;20.872;2024-02-15T05:51:05;34.00;;;17.27;;
45688;SDS011;31400;48.132;20.872;2024-02-15T05:53:31;37.13;;;18.05;;
45688;SDS011;31400;48.132;20.872;2024-02-15T05:56:04;32.63;;;17.80;;
45688;SDS011;31400;48.132;20.872;2024-02-15T05:58:32;30.08;;;18.38;;
45688;SDS011;31400;48.132;20.872;2024-02-15T06:00:58;24.95;;;15.95;;
45688;SDS011;31400;48.132;20.872;2024-02-15T06:03:28;28.77;;;16.60;;
45688;SDS011;31400;48.132;20.872;2024-02-15T06:05:54;30.13;;;16.45;;
45688;SDS011;31400;48.132;20.872;2024-02-15T06:08:26;25.23;;;14.48;;
45688;SDS011;31400;48.132;20.872;2024-02-15T06:10:54;27.08;;;13.80;;
45688;SDS011;31400;48.132;20.872;2024-02-15T06:13:20;23.73;;;13.00;;
45688;SDS011;31400;48.132;20.872;2024-02-15T06:15:46;21.88;;;12.52;;
45688;SDS011;31400;48.132;20.872;2024-02-15T06:18:17;22.45;;;12.18;;
45688;SDS011;31400;48.132;20.872;2024-02-15T06:20:46;20.63;;;11.85;;
45688;SDS011;31400;48.132;20.872;2024-02-15T06:23:14;17.48;;;11.73;;
45688;SDS011;31400;48.132;20.872;2024-02-15T06:25:40;24.52;;;11.15;;
45688;SDS011;31400;48.132;20.872;2024-02-15T06:28:06;25.42;;;12.30;;
45688;SDS011;31400;48.132;20.872;2024-02-15T06:30:41;17.17;;;10.57;;
45688;SDS011;31400;48.132;20.872;2024-02-15T06:33:26;16.02;;;10.80;;
45688;SDS011;31400;48.132;20.872;2024-02-15T06:36:10;16.58;;;11.43;;
45688;SDS011;31400;48.132;20.872;2024-02-15T06:38:55;18.15;;;11.40;;
45688;SDS011;31400;48.132;20.872;2024-02-15T06:41:39;23.48;;;13.10;;
45688;SDS011;31400;48.132;20.872;2024-02-15T06:44:05;23.45;;;12.88;;
45688;SDS011;31400;48.132;20.872;2024-02-15T06:46:32;20.27;;;11.95;;
45688;SDS011;31400;48.132;20.872;2024-02-15T06:48:58;17.65;;;11.23;;
45688;SDS011;31400;48.132;20.872;2024-02-15T06:51:24;17.67;;;11.65;;
45688;SDS011;31400;48.132;20.872;2024-02-15T06:53:50;22.88;;;13.13;;
45688;SDS011;31400;48.132;20.872;2024-02-15T06:56:20;20.17;;;12.52;;
45688;SDS011;31400;48.132;20.872;2024-02-15T06:58:46;22.08;;;10.70;;
45688;SDS011;31400;48.132;20.872;2024-02-15T07:01:13;18.23;;;11.27;;
45688;SDS011;31400;48.132;20.872;2024-02-15T07:03:41;18.70;;;9.23;;
45688;SDS011;31400;48.132;20.872;2024-02-15T07:06:09;14.13;;;9.20;;
45688;SDS011;31400;48.132;20.872;2024-02-15T07:08:35;16.15;;;9.10;;
45688;SDS011;31400;48.132;20.872;2024-02-15T07:11:01;14.32;;;9.38;;
45688;SDS011;31400;48.132;20.872;2024-02-15T07:13:28;19.05;;;13.27;;
45688;SDS011;31400;48.132;20.872;2024-02-15T07:15:54;22.95;;;13.65;;
45688;SDS011;31400;48.132;20.872;2024-02-15T07:18:20;24.75;;;15.10;;
45688;SDS011;31400;48.132;20.872;2024-02-15T07:20:47;25.65;;;14.05;;
45688;SDS011;31400;48.132;20.872;2024-02-15T07:23:13;27.70;;;12.40;;
45688;SDS011;31400;48.132;20.872;2024-02-15T07:25:44;21.17;;;11.88;;
45688;SDS011;31400;48.132;20.872;2024-02-15T07:28:13;18.63;;;12.00;;
45688;SDS011;31400;48.132;20.872;2024-02-15T07:30:39;24.70;;;13.52;;
45688;SDS011;31400;48.132;20.872;2024-02-15T07:33:05;20.38;;;12.32;;
45688;SDS011;31400;48.132;20.872;2024-02-15T07:35:32;21.20;;;13.50;;
45688;SDS011;31400;48.132;20.872;2024-02-15T07:38:00;29.67;;;17.77;;
45688;SDS011;31400;48.132;20.872;2024-02-15T07:40:26;38.70;;;22.98;;
45688;SDS011;31400;48.132;20.872;2024-02-15T07:42:54;18.55;;;10.93;;
45688;SDS011;31400;48.132;20.872;2024-02-15T07:45:20;18.33;;;11.52;;
45688;SDS011;31400;48.132;20.872;2024-02-15T07:47:46;17.58;;;11.80;;
45688;SDS011;31400;48.132;20.872;2024-02-15T07:50:17;18.48;;;12.07;;
45688;SDS011;31400;48.132;20.872;2024-02-15T07:52:47;21.67;;;13.63;;
45688;SDS011;31400;48.132;20.872;2024-02-15T07:57:39;21.85;;;14.30;;
45688;SDS011;31400;48.132;20.872;2024-02-15T08:00:06;19.63;;;13.27;;
45688;SDS011;31400;48.132;20.872;2024-02-15T08:02:39;20.92;;;14.38;;
45688;SDS011;31400;48.132;20.872;2024-02-15T08:05:06;20.23;;;13.38;;
45688;SDS011;31400;48.132;20.872;2024-02-15T08:07:35;18.88;;;14.23;;
45688;SDS011;31400;48.132;20.872;2024-02-15T08:10:01;23.38;;;13.20;;
45688;SDS011;31400;48.132;20.872;2024-02-15T08:12:28;15.82;;;12.85;;
45688;SDS011;31400;48.132;20.872;2024-02-15T08:14:55;19.63;;;12.45;;
45688;SDS011;31400;48.132;20.872;2024-02-15T08:17:23;16.67;;;12.55;;
45688;SDS011;31400;48.132;20.872;2024-02-15T08:19:50;18.73;;;13.18;;
45688;SDS011;31400;48.132;20.872;2024-02-15T08:22:16;17.88;;;11.50;;
45688;SDS011;31400;48.132;20.872;2024-02-15T08:24:42;18.92;;;10.65;;
45688;SDS011;31400;48.132;20.872;2024-02-15T08:27:09;12.98;;;9.90;;
45688;SDS011;31400;48.132;20.872;2024-02-15T08:29:35;12.75;;;8.75;;
45688;SDS011;31400;48.132;20.872;2024-02-15T08:32:01;13.27;;;9.50;;
45688;SDS011;31400;48.132;20.872;2024-02-15T08:34:29;11.95;;;8.93;;
45688;SDS011;31400;48.132;20.872;2024-02-15T08:37:06;25.00;;;8.65;;
45688;SDS011;31400;48.132;20.872;2024-02-15T08:39:32;11.27;;;8.43;;
45688;SDS011;31400;48.132;20.872;2024-02-15T08:41:58;10.40;;;7.47;;
45688;SDS011;31400;48.132;20.872;2024-02-15T08:44:24;10.05;;;8.13;;
45688;SDS011;31400;48.132;20.872;2024-02-15T08:46:50;18.48;;;8.45;;
45688;SDS011;31400;48.132;20.872;2024-02-15T08:49:16;11.55;;;7.45;;
45688;SDS011;31400;48.132;20.872;2024-02-15T08:51:42;16.05;;;9.18;;
45688;SDS011;31400;48.132;20.872;2024-02-15T08:54:08;12.00;;;7.78;;
45688;SDS011;31400;48.132;20.872;2024-02-15T08:56:37;10.02;;;6.65;;
45688;SDS011;31400;48.132;20.872;2024-02-15T08:59:03;14.13;;;8.90;;
45688;SDS011;31400;48.132;20.872;2024-02-15T09:01:29;10.60;;;7.65;;
45688;SDS011;31400;48.132;20.872;2024-02-15T09:03:56;13.80;;;8.50;;
45688;SDS011;31400;48.132;20.872;2024-02-15T09:06:22;11.68;;;7.78;;
45688;SDS011;31400;48.132;20.872;2024-02-15T09:08:48;12.02;;;8.20;;
45688;SDS011;31400;48.132;20.872;2024-02-15T09:11:14;14.55;;;8.95;;
45688;SDS011;31400;48.132;20.872;2024-02-15T09:13:40;27.20;;;8.40;;
45688;SDS011;31400;48.132;20.872;2024-02-15T09:16:06;10.88;;;7.05;;
45688;SDS011;31400;48.132;20.872;2024-02-15T09:18:32;10.70;;;7.95;;
45688;SDS011;31400;48.132;20.872;2024-02-15T09:20:58;11.10;;;7.90;;
45688;SDS011;31400;48.132;20.872;2024-02-15T09:23:24;14.75;;;9.20;;
45688;SDS011;31400;48.132;20.872;2024-02-15T09:25:50;14.75;;;8.27;;
45688;SDS011;31400;48.132;20.872;2024-02-15T09:28:17;14.32;;;7.93;;
45688;SDS011;31400;48.132;20.872;2024-02-15T09:30:48;11.30;;;8.73;;
45688;SDS011;31400;48.132;20.872;2024-02-15T09:33:16;12.55;;;8.63;;
45688;SDS011;31400;48.132;20.872;2024-02-15T09:35:42;12.90;;;7.82;;
45688;SDS011;31400;48.132;20.872;2024-02-15T09:38:08;12.18;;;9.40;;
45688;SDS011;31400;48.132;20.872;2024-02-15T09:40:34;9.88;;;8.40;;
45688;SDS011;31400;48.132;20.872;2024-02-15T09:43:00;12.60;;;9.40;;
45688;SDS011;31400;48.132;20.872;2024-02-15T09:45:26;14.88;;;9.43;;
45688;SDS011;31400;48.132;20.872;2024-02-15T09:47:52;22.45;;;9.88;;
45688;SDS011;31400;48.132;20.872;2024-02-15T09:50:19;17.38;;;10.73;;
45688;SDS011;31400;48.132;20.872;2024-02-15T09:52:47;13.07;;;9.23;;
45688;SDS011;31400;48.132;20.872;2024-02-15T09:55:13;14.43;;;9.18;;
45688;SDS011;31400;48.132;20.872;2024-02-15T09:57:43;19.83;;;10.80;;
45688;SDS011;31400;48.132;20.872;2024-02-15T10:00:10;20.73;;;10.57;;
45688;SDS011;31400;48.132;20.872;2024-02-15T10:02:40;24.35;;;10.85;;
45688;SDS011;31400;48.132;20.872;2024-02-15T10:05:06;16.02;;;9.45;;
45688;SDS011;31400;48.132;20.872;2024-02-15T10:07:37;15.75;;;9.10;;
45688;SDS011;31400;48.132;20.872;2024-02-15T10:10:13;15.32;;;9.27;;
45688;SDS011;31400;48.132;20.872;2024-02-15T10:12:42;13.02;;;9.60;;
45688;SDS011;31400;48.132;20.872;2024-02-15T10:15:09;21.25;;;10.07;;
45688;SDS011;31400;48.132;20.872;2024-02-15T10:17:35;14.30;;;8.82;;
45688;SDS011;31400;48.132;20.872;2024-02-15T10:20:05;16.63;;;10.50;;
45688;SDS011;31400;48.132;20.872;2024-02-15T10:22:46;16.77;;;9.77;;
45688;SDS011;31400;48.132;20.872;2024-02-15T10:25:40;17.05;;;10.75;;
45688;SDS011;31400;48.132;20.872;2024-02-15T10:28:30;12.38;;;9.55;;
45688;SDS011;31400;48.132;20.872;2024-02-15T10:30:55;15.38;;;9.55;;
45688;SDS011;31400;48.132;20.872;2024-02-15T10:33:37;15.50;;;9.18;;
45688;SDS011;31400;48.132;20.872;2024-02-15T10:36:04;21.45;;;9.70;;
45688;SDS011;31400;48.132;20.872;2024-02-15T10:38:31;16.10;;;8.75;;
45688;SDS011;31400;48.132;20.872;2024-02-15T10:41:02;11.93;;;9.40;;
45688;SDS011;31400;48.132;20.872;2024-02-15T10:43:30;16.45;;;9.88;;
45688;SDS011;31400;48.132;20.872;2024-02-15T10:45:56;16.45;;;9.35;;
45688;SDS011;31400;48.132;20.872;2024-02-15T10:48:22;13.13;;;9.45;;
45688;SDS011;31400;48.132;20.872;2024-02-15T10:50:49;13.35;;;10.63;;
45688;SDS011;31400;48.132;20.872;2024-02-15T10:53:26;12.15;;;9.23;;
45688;SDS011;31400;48.132;20.872;2024-02-15T10:55:53;12.90;;;9.73;;
45688;SDS011;31400;48.132;20.872;2024-02-15T10:58:23;13.05;;;9.48;;
45688;SDS011;31400;48.132;20.872;2024-02-15T11:00:51;15.35;;;9.75;;
45688;SDS011;31400;48.132;20.872;2024-02-15T11:03:29;17.02;;;8.98;;
45688;SDS011;31400;48.132;20.872;2024-02-15T11:05:59;12.13;;;8.55;;
45688;SDS011;31400;48.132;20.872;2024-02-15T11:08:26;10.85;;;8.57;;
45688;SDS011;31400;48.132;20.872;2024-02-15T11:10:52;21.30;;;8.82;;
45688;SDS011;31400;48.132;20.872;2024-02-15T11:13:23;12.45;;;8.30;;
45688;SDS011;31400;48.132;20.872;2024-02-15T11:15:49;15.23;;;9.07;;
45688;SDS011;31400;48.132;20.872;2024-02-15T11:18:51;23.00;;;9.25;;
45688;SDS011;31400;48.132;20.872;2024-02-15T11:21:10;15.27;;;9.63;;
45688;SDS011;31400;48.132;20.872;2024-02-15T11:23:36;13.23;;;9.05;;
45688;SDS011;31400;48.132;20.872;2024-02-15T11:26:03;11.55;;;8.90;;
45688;SDS011;31400;48.132;20.872;2024-02-15T11:30:56;15.15;;;9.93;;
45688;SDS011;31400;48.132;20.872;2024-02-15T11:33:27;15.25;;;9.35;;
45688;SDS011;31400;48.132;20.872;2024-02-15T11:36:07;12.02;;;8.50;;
45688;SDS011;31400;48.132;20.872;2024-02-15T11:38:36;16.60;;;8.63;;
45688;SDS011;31400;48.132;20.872;2024-02-15T11:41:05;10.07;;;7.60;;
45688;SDS011;31400;48.132;20.872;2024-02-15T11:46:18;12.23;;;8.85;;
45688;SDS011;31400;48.132;20.872;2024-02-15T11:48:48;11.57;;;8.30;;
45688;SDS011;31400;48.132;20.872;2024-02-15T11:51:33;19.05;;;8.90;;
45688;SDS011;31400;48.132;20.872;2024-02-15T11:54:07;16.45;;;10.48;;
45688;SDS011;31400;48.132;20.872;2024-02-15T11:59:19;14.63;;;9.80;;
45688;SDS011;31400;48.132;20.872;2024-02-15T12:01:56;18.05;;;9.77;;
45688;SDS011;31400;48.132;20.872;2024-02-15T12:04:41;12.70;;;9.70;;
45688;SDS011;31400;48.132;20.872;2024-02-15T12:07:27;17.23;;;9.63;;
45688;SDS011;31400;48.132;20.872;2024-02-15T12:10:15;17.70;;;10.63;;
45688;SDS011;31400;48.132;20.872;2024-02-15T12:13:00;14.05;;;9.75;;
45688;SDS011;31400;48.132;20.872;2024-02-15T12:15:55;14.35;;;10.68;;
45688;SDS011;31400;48.132;20.872;2024-02-15T12:18:40;16.90;;;9.68;;
45688;SDS011;31400;48.132;20.872;2024-02-15T12:21:09;13.65;;;9.88;;
45688;SDS011;31400;48.132;20.872;2024-02-15T12:23:37;15.13;;;10.80;;
45688;SDS011;31400;48.132;20.872;2024-02-15T12:26:06;13.73;;;10.00;;
45688;SDS011;31400;48.132;20.872;2024-02-15T12:28:32;16.98;;;10.13;;
45688;SDS011;31400;48.132;20.872;2024-02-15T12:31:00;18.58;;;11.13;;
45688;SDS011;31400;48.132;20.872;2024-02-15T12:33:27;17.33;;;10.15;;
45688;SDS011;31400;48.132;20.872;2024-02-15T12:38:19;23.83;;;10.47;;
45688;SDS011;31400;48.132;20.872;2024-02-15T12:40:46;17.38;;;9.75;;
45688;SDS011;31400;48.132;20.872;2024-02-15T12:45:39;15.55;;;10.23;;
45688;SDS011;31400;48.132;20.872;2024-02-15T12:48:06;14.23;;;9.90;;
45688;SDS011;31400;48.132;20.872;2024-02-15T12:50:33;16.20;;;9.40;;
45688;SDS011;31400;48.132;20.872;2024-02-15T12:52:59;14.07;;;9.38;;
45688;SDS011;31400;48.132;20.872;2024-02-15T12:55:31;15.20;;;9.15;;
45688;SDS011;31400;48.132;20.872;2024-02-15T12:58:04;14.18;;;10.23;;
45688;SDS011;31400;48.132;20.872;2024-02-15T13:00:33;18.80;;;10.38;;
45688;SDS011;31400;48.132;20.872;2024-02-15T13:03:02;18.30;;;9.77;;
45688;SDS011;31400;48.132;20.872;2024-02-15T13:05:28;17.40;;;10.00;;
45688;SDS011;31400;48.132;20.872;2024-02-15T13:07:55;11.90;;;9.25;;
45688;SDS011;31400;48.132;20.872;2024-02-15T13:10:23;12.70;;;9.57;;
45688;SDS011;31400;48.132;20.872;2024-02-15T13:12:51;16.85;;;10.32;;
45688;SDS011;31400;48.132;20.872;2024-02-15T13:15:18;15.63;;;9.77;;
45688;SDS011;31400;48.132;20.872;2024-02-15T13:17:49;22.50;;;9.93;;
45688;SDS011;31400;48.132;20.872;2024-02-15T13:20:21;22.98;;;10.35;;
45688;SDS011;31400;48.132;20.872;2024-02-15T13:22:57;16.25;;;9.63;;
45688;SDS011;31400;48.132;20.872;2024-02-15T13:25:27;14.27;;;8.88;;
45688;SDS011;31400;48.132;20.872;2024-02-15T13:27:53;13.70;;;9.07;;
45688;SDS011;31400;48.132;20.872;2024-02-15T13:30:19;19.42;;;9.98;;
45688;SDS011;31400;48.132;20.872;2024-02-15T13:32:48;19.67;;;10.35;;
45688;SDS011;31400;48.132;20.872;2024-02-15T13:35:19;13.63;;;8.48;;
45688;SDS011;31400;48.132;20.872;2024-02-15T13:40:12;13.43;;;9.35;;
45688;SDS011;31400;48.132;20.872;2024-02-15T13:42:41;14.80;;;9.13;;
45688;SDS011;31400;48.132;20.872;2024-02-15T13:45:12;16.10;;;8.35;;
45688;SDS011;31400;48.132;20.872;2024-02-15T13:47:38;16.15;;;9.32;;
45688;SDS011;31400;48.132;20.872;2024-02-15T13:50:04;11.27;;;8.68;;
45688;SDS011;31400;48.132;20.872;2024-02-15T13:52:32;13.50;;;9.85;;
45688;SDS011;31400;48.132;20.872;2024-02-15T13:54:59;16.38;;;9.30;;
45688;SDS011;31400;48.132;20.872;2024-02-15T13:57:25;17.08;;;9.95;;
45688;SDS011;31400;48.132;20.872;2024-02-15T13:59:51;14.65;;;9.73;;
45688;SDS011;31400;48.132;20.872;2024-02-15T14:02:17;22.02;;;10.82;;
45688;SDS011;31400;48.132;20.872;2024-02-15T14:04:43;17.45;;;10.07;;
45688;SDS011;31400;48.132;20.872;2024-02-15T14:07:09;17.17;;;9.25;;
45688;SDS011;31400;48.132;20.872;2024-02-15T14:09:35;17.63;;;9.65;;
45688;SDS011;31400;48.132;20.872;2024-02-15T14:14:30;13.20;;;8.95;;
45688;SDS011;31400;48.132;20.872;2024-02-15T14:16:56;13.07;;;9.00;;
45688;SDS011;31400;48.132;20.872;2024-02-15T14:19:22;13.52;;;8.82;;
45688;SDS011;31400;48.132;20.872;2024-02-15T14:21:51;25.20;;;9.38;;
45688;SDS011;31400;48.132;20.872;2024-02-15T14:24:19;13.40;;;9.40;;
45688;SDS011;31400;48.132;20.872;2024-02-15T14:26:47;13.02;;;8.65;;
45688;SDS011;31400;48.132;20.872;2024-02-15T14:29:14;19.23;;;8.98;;
45688;SDS011;31400;48.132;20.872;2024-02-15T14:31:40;17.95;;;8.95;;
45688;SDS011;31400;48.132;20.872;2024-02-15T14:34:25;19.08;;;8.80;;
45688;SDS011;31400;48.132;20.872;2024-02-15T14:36:51;15.10;;;8.57;;
45688;SDS011;31400;48.132;20.872;2024-02-15T14:39:17;14.50;;;9.13;;
45688;SDS011;31400;48.132;20.872;2024-02-15T14:41:44;16.20;;;10.00;;
45688;SDS011;31400;48.132;20.872;2024-02-15T14:44:10;16.10;;;9.38;;
45688;SDS011;31400;48.132;20.872;2024-02-15T14:46:37;14.20;;;8.80;;
45688;SDS011;31400;48.132;20.872;2024-02-15T14:49:03;11.68;;;8.60;;
45688;SDS011;31400;48.132;20.872;2024-02-15T14:51:31;18.75;;;8.93;;
45688;SDS011;31400;48.132;20.872;2024-02-15T14:53:59;14.25;;;8.88;;